Time;durP1;ratioP1;P1;durP2;ratioP2;P2;SDS_P1;SDS_P2;PMS_P1;PMS_P2;Temp;Humidity;BMP_temperature;BMP_pressure;BME280_temperature;BME280_humidity;BME280_pressure;Samples;Min_cycle;Max_cycle;Signal;HPM_P1;HPM_P2
2022/09/21 00:01:42;;;;;;;4.83;4.33;;;15.90;60.90;;;;;;4995810;28;20433;-72
2022/09/21 00:04:10;;;;;;;3.40;2.77;;;15.90;61.00;;;;;;4987352;28;20456;-72
2022/09/21 00:06:38;;;;;;;3.30;2.70;;;15.90;60.90;;;;;;4990905;28;20465;-72
2022/09/21 00:09:08;;;;;;;4.53;3.77;;;15.90;60.90;;;;;;4994503;28;20545;-72
2022/09/21 00:11:37;;;;;;;3.50;2.83;;;15.90;60.80;;;;;;4992559;28;20476;-73
2022/09/21 00:14:09;;;;;;;3.50;3.17;;;15.90;60.80;;;;;;4993436;28;20457;-72
2022/09/21 00:16:38;;;;;;;4.70;2.90;;;15.90;60.80;;;;;;5011549;28;20500;-72
2022/09/21 00:19:08;;;;;;;3.43;3.13;;;15.90;60.70;;;;;;4993736;28;20453;-72
2022/09/21 00:21:38;;;;;;;3.30;2.70;;;15.90;60.70;;;;;;4987685;28;20877;-72
2022/09/21 00:24:07;;;;;;;2.83;2.53;;;15.90;60.70;;;;;;5017951;28;20540;-72
2022/09/21 00:26:35;;;;;;;4.20;3.07;;;15.90;60.80;;;;;;4988189;28;20464;-72
2022/09/21 00:29:05;;;;;;;3.87;3.20;;;15.90;60.70;;;;;;5010908;28;20971;-72
2022/09/21 00:31:34;;;;;;;3.47;2.60;;;15.90;60.80;;;;;;4990015;28;20468;-72
2022/09/21 00:34:06;;;;;;;3.00;2.70;;;15.90;60.60;;;;;;4994304;28;20794;-72
2022/09/21 00:36:36;;;;;;;2.60;2.40;;;15.90;60.70;;;;;;4989002;28;20474;-72
2022/09/21 00:39:04;;;;;;;3.30;2.97;;;15.90;60.70;;;;;;4991386;28;20829;-72
2022/09/21 00:41:33;;;;;;;3.17;2.87;;;15.90;60.50;;;;;;4992373;28;20913;-72
2022/09/21 00:44:30;;;;;;;2.87;2.60;;;15.90;60.40;;;;;;4990918;28;20977;-72
2022/09/21 00:47:04;;;;;;;3.40;3.10;;;15.90;60.50;;;;;;5001588;28;20547;-72
2022/09/21 00:49:34;;;;;;;3.50;2.80;;;15.90;60.60;;;;;;4992577;28;20463;-72
2022/09/21 00:52:06;;;;;;;3.30;2.23;;;15.90;60.60;;;;;;4992742;28;20453;-72
2022/09/21 00:54:41;;;;;;;4.10;2.23;;;15.80;60.40;;;;;;5002073;28;20444;-72
2022/09/21 00:57:10;;;;;;;2.70;2.50;;;15.80;60.40;;;;;;4975930;28;20967;-72
2022/09/21 00:59:39;;;;;;;3.87;2.50;;;15.80;60.40;;;;;;4990051;28;20473;-72
2022/09/21 01:02:08;;;;;;;3.57;2.60;;;15.80;60.30;;;;;;4986227;28;20476;-72
2022/09/21 01:04:37;;;;;;;3.30;2.73;;;15.80;60.10;;;;;;4990479;28;20455;-72
2022/09/21 01:07:11;;;;;;;2.87;2.23;;;15.80;60.40;;;;;;4993191;28;20509;-72
2022/09/21 01:09:42;;;;;;;2.33;2.10;;;15.80;60.10;;;;;;4997824;28;20491;-72
2022/09/21 01:12:23;;;;;;;3.20;2.90;;;15.80;60.30;;;;;;5007723;28;20999;-72
2022/09/21 01:15:03;;;;;;;4.27;2.70;;;15.80;60.10;;;;;;5000346;28;20487;-72
2022/09/21 01:17:42;;;;;;;3.47;2.80;;;15.80;60.20;;;;;;4993458;28;21090;-72
2022/09/21 01:20:32;;;;;;;2.83;2.63;;;15.80;60.00;;;;;;4997432;28;20455;-72
2022/09/21 01:23:22;;;;;;;4.20;2.63;;;15.80;60.00;;;;;;4991532;28;20960;-72
2022/09/21 01:26:06;;;;;;;2.90;2.70;;;15.80;59.90;;;;;;4992492;28;20465;-72
2022/09/21 01:28:59;;;;;;;3.00;2.33;;;15.80;59.80;;;;;;4986906;28;21059;-72
2022/09/21 01:31:33;;;;;;;2.97;2.70;;;15.80;59.90;;;;;;4995697;28;20572;-72
2022/09/21 01:34:07;;;;;;;7.90;2.33;;;15.80;59.90;;;;;;4990588;28;20449;-72
2022/09/21 01:36:38;;;;;;;2.67;2.47;;;15.80;59.80;;;;;;4992448;28;20457;-72
2022/09/21 01:39:11;;;;;;;2.83;2.33;;;15.80;59.90;;;;;;5009511;28;20487;-72
2022/09/21 01:41:42;;;;;;;2.77;2.47;;;15.80;59.90;;;;;;4990710;28;20878;-71
2022/09/21 01:44:15;;;;;;;2.73;2.53;;;15.80;59.90;;;;;;4992263;28;20976;-72
2022/09/21 01:46:46;;;;;;;3.50;2.10;;;15.80;59.90;;;;;;4998697;28;20441;-72
2022/09/21 01:49:20;;;;;;;2.83;2.43;;;15.80;59.80;;;;;;5017421;28;20457;-72
2022/09/21 01:51:53;;;;;;;2.47;2.27;;;15.80;59.80;;;;;;4982778;28;20466;-72
2022/09/21 01:54:25;;;;;;;2.53;2.33;;;15.80;59.90;;;;;;5002234;28;20882;-72
2022/09/21 01:56:59;;;;;;;2.40;2.20;;;15.80;59.80;;;;;;4990364;28;20544;-72
2022/09/21 01:59:35;;;;;;;2.57;2.37;;;15.80;61.10;;;;;;5008839;28;20965;-72
2022/09/21 02:02:09;;;;;;;2.60;2.40;;;15.80;59.90;;;;;;4989058;28;20456;-72
2022/09/21 02:04:38;;;;;;;3.10;2.23;;;15.80;59.90;;;;;;4991898;28;20500;-72
2022/09/21 02:07:07;;;;;;;2.67;2.33;;;15.80;59.80;;;;;;4994660;28;20499;-72
2022/09/21 02:09:37;;;;;;;3.90;3.17;;;15.80;59.90;;;;;;4994175;28;20467;-72
2022/09/21 02:12:05;;;;;;;2.97;2.67;;;15.80;59.80;;;;;;4992794;28;20563;-72
2022/09/21 02:14:37;;;;;;;3.17;2.50;;;15.80;59.90;;;;;;4993779;28;20441;-72
2022/09/21 02:17:18;;;;;;;4.57;2.17;;;15.70;59.80;;;;;;4991868;28;20883;-72
2022/09/21 02:19:53;;;;;;;2.17;1.93;;;15.70;59.80;;;;;;4993335;28;20432;-72
2022/09/21 02:22:32;;;;;;;2.67;2.47;;;15.70;59.80;;;;;;4989230;28;20498;-72
2022/09/21 02:25:08;;;;;;;2.70;2.50;;;15.70;59.80;;;;;;4994878;28;20501;-72
2022/09/21 02:27:43;;;;;;;2.30;2.10;;;15.70;59.70;;;;;;4991179;28;21098;-72
2022/09/21 02:30:16;;;;;;;3.67;2.47;;;15.70;59.80;;;;;;4993320;28;20458;-72
2022/09/21 02:32:50;;;;;;;2.80;2.40;;;15.70;59.70;;;;;;4984869;28;20512;-72
2022/09/21 02:35:30;;;;;;;2.20;2.00;;;15.70;59.80;;;;;;5001902;28;20544;-72
2022/09/21 02:38:05;;;;;;;2.60;2.30;;;15.70;59.80;;;;;;4983597;28;20489;-72
2022/09/21 02:40:38;;;;;;;3.07;2.20;;;15.70;59.70;;;;;;5016423;23;20545;-68
2022/09/21 02:43:11;;;;;;;2.70;2.50;;;15.70;59.80;;;;;;5043456;28;20894;-67
2022/09/21 02:45:45;;;;;;;2.67;2.03;;;15.70;59.80;;;;;;5039439;28;20552;-68
2022/09/21 02:48:18;;;;;;;2.47;2.20;;;15.70;59.70;;;;;;5000170;28;20472;-67
2022/09/21 02:50:50;;;;;;;2.50;2.30;;;15.70;59.80;;;;;;5020435;28;20448;-67
2022/09/21 02:53:23;;;;;;;2.70;2.07;;;15.70;59.80;;;;;;5005632;28;20506;-68
2022/09/21 02:55:53;;;;;;;2.50;2.27;;;15.70;59.80;;;;;;5004534;28;20527;-68
2022/09/21 02:58:26;;;;;;;2.83;2.30;;;15.70;59.80;;;;;;5006200;28;20506;-67
2022/09/21 03:00:58;;;;;;;2.57;2.20;;;15.70;59.70;;;;;;5013180;28;20960;-67
2022/09/21 03:03:27;;;;;;;3.97;2.70;;;15.70;59.80;;;;;;5006672;28;21033;-68
2022/09/21 03:05:55;;;;;;;2.43;2.20;;;15.70;59.70;;;;;;5018738;28;20480;-67
2022/09/21 03:08:24;;;;;;;2.73;2.50;;;15.70;59.80;;;;;;5024533;28;20479;-68
2022/09/21 03:10:53;;;;;;;2.90;2.47;;;15.60;59.70;;;;;;5005608;28;20429;-67
2022/09/21 03:13:21;;;;;;;3.40;2.50;;;15.60;59.70;;;;;;5018297;28;20496;-66
2022/09/21 03:15:50;;;;;;;2.47;2.17;;;15.70;59.70;;;;;;5018197;28;20445;-67
2022/09/21 03:18:19;;;;;;;2.40;2.20;;;15.60;59.70;;;;;;5015545;28;20483;-68
2022/09/21 03:20:48;;;;;;;2.70;2.50;;;15.60;59.70;;;;;;5005780;28;20526;-67
2022/09/21 03:23:16;;;;;;;2.13;1.93;;;15.60;59.70;;;;;;5011312;28;20855;-67
2022/09/21 03:25:45;;;;;;;1.93;1.80;;;15.60;59.70;;;;;;5027384;28;21021;-68
2022/09/21 03:28:14;;;;;;;2.53;2.33;;;15.60;59.70;;;;;;5007040;28;20495;-68
2022/09/21 03:30:43;;;;;;;2.13;1.93;;;15.60;59.70;;;;;;5008169;28;20540;-68
2022/09/21 03:33:12;;;;;;;1.70;1.60;;;15.60;59.70;;;;;;5005175;28;20999;-68
2022/09/21 03:35:42;;;;;;;2.73;2.40;;;15.60;59.70;;;;;;5014063;28;20874;-68
2022/09/21 03:38:11;;;;;;;2.37;1.80;;;15.60;59.70;;;;;;4998840;28;20474;-68
2022/09/21 03:40:39;;;;;;;2.13;1.80;;;15.60;59.70;;;;;;4987740;28;20453;-68
2022/09/21 03:43:08;;;;;;;2.00;1.80;;;15.60;59.70;;;;;;4977179;28;20465;-68
2022/09/21 03:45:38;;;;;;;2.20;1.93;;;15.60;59.70;;;;;;4986831;28;20524;-66
2022/09/21 03:48:07;;;;;;;2.03;1.83;;;15.60;59.70;;;;;;4988795;28;21054;-66
2022/09/21 03:50:35;;;;;;;3.90;2.37;;;15.60;59.70;;;;;;5007958;28;20988;-67
2022/09/21 03:53:05;;;;;;;2.37;2.17;;;15.60;59.70;;;;;;5015911;28;20792;-68
2022/09/21 03:55:34;;;;;;;2.60;1.80;;;15.60;59.70;;;;;;5013121;28;20520;-68
2022/09/21 03:58:03;;;;;;;2.60;2.20;;;15.50;59.50;;;;;;4993538;28;20466;-68
2022/09/21 04:00:32;;;;;;;2.07;1.87;;;15.60;59.70;;;;;;4997354;28;20462;-69
2022/09/21 04:03:00;;;;;;;2.40;1.97;;;15.60;59.70;;;;;;5013536;28;20479;-68
2022/09/21 04:05:29;;;;;;;2.87;1.90;;;15.50;59.50;;;;;;4999480;28;20475;-68
2022/09/21 04:07:57;;;;;;;2.00;1.90;;;15.50;59.50;;;;;;5006179;28;20475;-67
2022/09/21 04:10:32;;;;;;;3.87;1.80;;;15.50;59.50;;;;;;4986854;28;20477;-68
2022/09/21 04:13:02;;;;;;;2.63;2.03;;;15.50;59.50;;;;;;4986897;28;20555;-68
2022/09/21 04:15:31;;;;;;;2.03;1.60;;;15.50;59.50;;;;;;4992414;28;20446;-68
2022/09/21 04:17:59;;;;;;;1.70;1.60;;;15.60;59.70;;;;;;5004933;28;20480;-68
2022/09/21 04:20:28;;;;;;;2.07;1.87;;;15.50;59.50;;;;;;4969656;28;20549;-68
2022/09/21 04:22:56;;;;;;;3.43;2.30;;;15.50;59.60;;;;;;4996986;28;20504;-67
2022/09/21 04:25:25;;;;;;;3.17;2.13;;;15.50;59.50;;;;;;5005823;28;20457;-68
2022/09/21 04:27:55;;;;;;;2.07;1.87;;;15.50;59.60;;;;;;5005436;28;20963;-68
2022/09/21 04:30:23;;;;;;;1.80;1.70;;;15.50;59.50;;;;;;5005843;28;20448;-67
2022/09/21 04:32:52;;;;;;;2.67;1.60;;;15.50;59.50;;;;;;5020438;28;21025;-68
2022/09/21 04:35:21;;;;;;;3.63;2.40;;;15.50;59.50;;;;;;5010966;28;20868;-68
2022/09/21 04:37:49;;;;;;;2.87;2.30;;;15.50;59.60;;;;;;5018995;28;21039;-68
2022/09/21 04:40:17;;;;;;;1.57;1.37;;;15.50;60.80;;;;;;4982091;28;20429;-67
2022/09/21 04:42:51;;;;;;;2.33;2.13;;;15.50;59.60;;;;;;5009241;28;20450;-68
2022/09/21 04:45:21;;;;;;;1.90;1.63;;;15.50;59.40;;;;;;5009830;28;20456;-68
2022/09/21 04:47:49;;;;;;;2.37;1.90;;;15.50;59.40;;;;;;5000363;28;21031;-68
2022/09/21 04:50:18;;;;;;;2.10;1.90;;;15.50;59.40;;;;;;4988986;28;20442;-68
2022/09/21 04:52:49;;;;;;;2.13;1.77;;;15.50;59.60;;;;;;5010459;28;20560;-69
2022/09/21 04:55:19;;;;;;;2.40;2.20;;;15.50;59.50;;;;;;5005301;28;20468;-68
2022/09/21 04:57:48;;;;;;;2.77;2.03;;;15.50;59.50;;;;;;5008086;28;20477;-68
2022/09/21 05:00:18;;;;;;;2.20;1.60;;;15.40;59.00;;;;;;5009267;28;20482;-68
2022/09/21 05:02:48;;;;;;;2.90;2.00;;;15.50;59.10;;;;;;5010792;28;20434;-68
2022/09/21 05:05:16;;;;;;;5.37;1.97;;;15.50;59.20;;;;;;4999700;28;20465;-68
2022/09/21 05:07:45;;;;;;;2.30;1.77;;;15.40;59.10;;;;;;4988431;28;20475;-67
2022/09/21 05:10:12;;;;;;;2.20;2.00;;;15.40;59.10;;;;;;5003079;28;20847;-67
2022/09/21 05:12:42;;;;;;;1.73;1.60;;;15.40;59.00;;;;;;5014131;28;20462;-67
2022/09/21 05:15:11;;;;;;;3.33;2.00;;;15.40;59.10;;;;;;5006098;28;20556;-67
2022/09/21 05:17:40;;;;;;;3.23;1.90;;;15.40;59.10;;;;;;5025748;28;20461;-68
2022/09/21 05:20:11;;;;;;;5.00;2.00;;;15.40;59.00;;;;;;5011666;28;20446;-68
2022/09/21 05:22:39;;;;;;;3.03;1.90;;;15.40;58.90;;;;;;4980060;28;20570;-68
2022/09/21 05:25:09;;;;;;;2.63;2.20;;;15.40;58.90;;;;;;5007063;28;20532;-68
2022/09/21 05:27:37;;;;;;;2.47;2.00;;;15.40;58.90;;;;;;4989654;28;20854;-66
2022/09/21 05:30:07;;;;;;;3.80;1.90;;;15.40;58.90;;;;;;4989533;28;20528;-68
2022/09/21 05:32:44;;;;;;;3.23;1.80;;;15.40;58.80;;;;;;4989878;28;20462;-67
2022/09/21 05:35:23;;;;;;;2.93;2.20;;;15.40;58.90;;;;;;5003797;28;20516;-67
2022/09/21 05:37:57;;;;;;;2.40;1.90;;;15.40;58.90;;;;;;4993548;28;20552;-69
2022/09/21 05:40:26;;;;;;;2.10;1.87;;;15.40;59.00;;;;;;5005139;28;20452;-68
2022/09/21 05:42:55;;;;;;;2.13;1.93;;;15.40;59.00;;;;;;4994707;28;20501;-68
2022/09/21 05:45:24;;;;;;;2.10;1.90;;;15.40;59.00;;;;;;4999336;28;20496;-68
2022/09/21 05:47:57;;;;;;;5.50;2.07;;;15.40;58.80;;;;;;4994752;28;20569;-67
2022/09/21 05:50:40;;;;;;;1.90;1.70;;;15.40;60.00;;;;;;5014486;28;20968;-68
2022/09/21 05:53:23;;;;;;;2.40;1.80;;;15.30;58.70;;;;;;4999921;28;20473;-67
2022/09/21 05:55:56;;;;;;;2.73;2.40;;;15.30;58.80;;;;;;5007202;28;20475;-66
2022/09/21 05:58:32;;;;;;;1.93;1.67;;;15.30;58.70;;;;;;5010422;28;20971;-68
2022/09/21 06:01:20;;;;;;;3.77;2.40;;;15.40;58.80;;;;;;5000207;28;20442;-68
2022/09/21 06:03:49;;;;;;;2.33;2.13;;;15.30;58.70;;;;;;5018955;28;20477;-66
2022/09/21 06:06:19;;;;;;;2.20;1.60;;;15.30;58.60;;;;;;5009685;28;20507;-67
2022/09/21 06:08:48;;;;;;;2.13;1.93;;;15.40;58.60;;;;;;5028293;28;20519;-67
2022/09/21 06:11:16;;;;;;;2.30;1.83;;;15.30;58.60;;;;;;5030275;28;20445;-68
2022/09/21 06:13:45;;;;;;;2.20;1.90;;;15.30;58.60;;;;;;5011349;28;20988;-68
2022/09/21 06:16:13;;;;;;;2.33;2.13;;;15.30;58.60;;;;;;5007447;28;20464;-66
2022/09/21 06:18:42;;;;;;;3.10;2.00;;;15.30;58.70;;;;;;5022081;28;20478;-67
2022/09/21 06:21:10;;;;;;;2.27;2.07;;;15.30;58.70;;;;;;5029200;28;20448;-68
2022/09/21 06:23:40;;;;;;;2.60;2.40;;;15.30;58.70;;;;;;5023663;28;20467;-66
2022/09/21 06:26:08;;;;;;;2.37;2.17;;;15.30;58.60;;;;;;4997350;28;20477;-66
2022/09/21 06:28:36;;;;;;;2.50;2.17;;;15.30;58.70;;;;;;5013284;28;20475;-69
2022/09/21 06:31:05;;;;;;;2.40;1.87;;;15.30;58.60;;;;;;5020047;28;20444;-67
2022/09/21 06:33:36;;;;;;;4.30;2.10;;;15.30;58.80;;;;;;5014254;28;20477;-67
2022/09/21 06:36:05;;;;;;;4.63;2.43;;;15.30;58.70;;;;;;5013612;28;20974;-67
2022/09/21 06:38:34;;;;;;;2.93;2.20;;;15.30;58.70;;;;;;5010759;28;21828;-66
2022/09/21 06:41:04;;;;;;;2.40;2.20;;;15.30;58.80;;;;;;5013235;28;20547;-68
2022/09/21 06:43:33;;;;;;;2.40;1.83;;;15.30;58.70;;;;;;5007152;28;20548;-67
2022/09/21 06:46:02;;;;;;;1.87;1.70;;;15.30;58.70;;;;;;5021648;28;20471;-67
2022/09/21 06:48:32;;;;;;;1.77;1.63;;;15.30;58.70;;;;;;5023487;28;20572;-69
2022/09/21 06:51:02;;;;;;;1.83;1.70;;;15.30;58.60;;;;;;5007526;28;20487;-67
2022/09/21 06:53:32;;;;;;;3.03;1.90;;;15.30;58.80;;;;;;5002962;28;20659;-67
2022/09/21 06:56:03;;;;;;;2.30;2.10;;;15.30;58.90;;;;;;4999742;28;20452;-67
2022/09/21 06:58:33;;;;;;;4.60;2.17;;;15.30;58.90;;;;;;5030561;28;20522;-68
2022/09/21 07:01:08;;;;;;;2.53;2.13;;;15.30;60.10;;;;;;5023192;28;20434;-68
2022/09/21 07:03:37;;;;;;;2.07;1.87;;;15.30;58.80;;;;;;4995547;28;20526;-66
2022/09/21 07:06:07;;;;;;;6.10;2.73;;;15.30;58.90;;;;;;4999635;28;20472;-68
2022/09/21 07:08:35;;;;;;;4.67;4.10;;;15.20;59.10;;;;;;4987047;28;20474;-66
2022/09/21 07:11:26;;;;;;;5.80;4.53;;;15.20;59.40;;;;;;4990620;28;20457;-68
2022/09/21 07:13:57;;;;;;;4.87;3.70;;;15.20;59.30;;;;;;5017570;28;20472;-66
2022/09/21 07:16:26;;;;;;;7.60;4.07;;;15.20;59.30;;;;;;4986895;28;20788;-67
2022/09/21 07:18:55;;;;;;;7.03;4.40;;;15.20;59.30;;;;;;5024958;28;21024;-67
2022/09/21 07:21:24;;;;;;;10.40;3.43;;;15.20;59.30;;;;;;4999656;28;20429;-68
2022/09/21 07:23:52;;;;;;;7.70;3.93;;;15.10;59.20;;;;;;4989494;28;20466;-66
2022/09/21 07:26:21;;;;;;;3.90;3.03;;;15.20;59.30;;;;;;4983687;28;20550;-67
2022/09/21 07:28:51;;;;;;;4.10;2.67;;;15.10;59.20;;;;;;4986823;28;20561;-67
2022/09/21 07:31:19;;;;;;;3.63;2.70;;;15.20;59.30;;;;;;5015991;28;20468;-66
2022/09/21 07:33:47;;;;;;;3.13;2.77;;;15.10;59.20;;;;;;5022310;28;20473;-66
2022/09/21 07:36:16;;;;;;;7.80;2.60;;;15.20;59.30;;;;;;4986890;28;20557;-68
2022/09/21 07:38:45;;;;;;;2.50;2.30;;;15.10;59.20;;;;;;5016515;28;20893;-66
2022/09/21 07:41:14;;;;;;;3.33;3.03;;;15.20;59.30;;;;;;4994053;28;20465;-67
2022/09/21 07:43:42;;;;;;;4.20;2.47;;;15.20;59.40;;;;;;4989529;28;20911;-68
2022/09/21 07:46:14;;;;;;;3.80;2.53;;;15.20;59.30;;;;;;4989017;28;20554;-68
2022/09/21 07:48:42;;;;;;;4.90;2.50;;;15.20;59.30;;;;;;5021778;28;20540;-66
2022/09/21 07:51:13;;;;;;;3.23;2.43;;;15.20;59.30;;;;;;4987049;28;20533;-66
2022/09/21 07:53:44;;;;;;;4.23;2.33;;;15.20;59.40;;;;;;4992223;28;21027;-67
2022/09/21 07:56:15;;;;;;;3.17;2.57;;;15.20;59.30;;;;;;4988438;28;20496;-67
2022/09/21 08:01:32;;;;;;;4.13;1.97;;;15.20;59.30;;;;;;4983910;28;20477;-66
2022/09/21 08:04:01;;;;;;;2.50;2.10;;;15.20;59.30;;;;;;4989911;28;20469;-65
2022/09/21 08:06:32;;;;;;;2.90;2.37;;;15.20;59.30;;;;;;4985767;28;21009;-66
2022/09/21 08:09:00;;;;;;;3.47;2.40;;;15.20;59.30;;;;;;5004664;28;20560;-66
2022/09/21 08:11:31;;;;;;;4.50;1.83;;;15.20;59.30;;;;;;4981225;28;20439;-65
2022/09/21 08:14:01;;;;;;;3.10;2.53;;;15.20;59.30;;;;;;5025145;28;20479;-66
2022/09/21 08:16:32;;;;;;;4.00;2.90;;;15.20;59.30;;;;;;5006892;28;20534;-67
2022/09/21 08:19:02;;;;;;;6.20;2.40;;;15.20;59.40;;;;;;5009770;28;20464;-66
2022/09/21 08:21:32;;;;;;;2.73;2.27;;;15.20;59.30;;;;;;5014676;28;20480;-67
2022/09/21 08:24:00;;;;;;;3.07;2.77;;;15.30;59.40;;;;;;5026902;28;20475;-73
2022/09/21 08:26:28;;;;;;;2.30;2.10;;;15.20;59.30;;;;;;5015406;28;20897;-72
2022/09/21 08:28:57;;;;;;;2.43;2.20;;;15.30;59.40;;;;;;4990735;28;20475;-72
2022/09/21 08:31:26;;;;;;;2.50;2.10;;;15.30;59.40;;;;;;5008248;28;20434;-71
2022/09/21 08:33:57;;;;;;;2.33;2.07;;;15.20;59.30;;;;;;5002518;28;20564;-72
2022/09/21 08:36:25;;;;;;;2.90;2.00;;;15.30;59.40;;;;;;5007780;28;20681;-72
2022/09/21 08:38:55;;;;;;;3.97;2.23;;;15.30;59.40;;;;;;5006834;28;20939;-71
2022/09/21 08:41:31;;;;;;;2.50;2.10;;;15.30;59.40;;;;;;5045427;22;20488;-70
2022/09/21 08:44:05;;;;;;;3.77;1.90;;;15.30;59.40;;;;;;5005868;28;20473;-73
2022/09/21 08:46:36;;;;;;;3.00;2.00;;;15.30;59.40;;;;;;5003835;28;20484;-73
2022/09/21 08:49:13;;;;;;;2.90;1.93;;;15.20;59.30;;;;;;4997084;28;20861;-72
2022/09/21 08:51:48;;;;;;;4.00;2.00;;;15.30;59.40;;;;;;4990698;28;20478;-72
2022/09/21 08:54:23;;;;;;;2.50;2.17;;;15.30;59.40;;;;;;4991882;28;20571;-72
2022/09/21 08:56:51;;;;;;;3.10;2.77;;;15.30;59.40;;;;;;4996622;28;20536;-72
2022/09/21 08:59:34;;;;;;;3.30;2.10;;;15.30;59.40;;;;;;4990112;28;20442;-72
2022/09/21 09:02:20;;;;;;;3.73;2.53;;;15.30;59.40;;;;;;4989023;28;20508;-72
2022/09/21 09:05:00;;;;;;;2.57;1.73;;;15.30;59.40;;;;;;4987785;28;20476;-71
2022/09/21 09:07:53;;;;;;;3.00;2.17;;;15.30;59.40;;;;;;4998243;28;20513;-70
2022/09/21 09:10:36;;;;;;;2.30;2.00;;;15.30;59.40;;;;;;5004343;28;20457;-69
2022/09/21 09:13:35;;;;;;;3.70;1.97;;;15.30;59.40;;;;;;4987315;28;20505;-69
2022/09/21 09:16:11;;;;;;;1.80;1.60;;;15.30;59.40;;;;;;4989450;28;20565;-69
2022/09/21 09:18:45;;;;;;;2.63;1.90;;;15.30;59.40;;;;;;5001883;28;20469;-70
2022/09/21 09:21:20;;;;;;;2.03;1.83;;;15.30;59.40;;;;;;4985539;28;20458;-70
2022/09/21 09:24:02;;;;;;;2.10;1.70;;;15.30;59.40;;;;;;4989614;28;20477;-69
2022/09/21 09:26:36;;;;;;;2.53;2.10;;;15.30;59.40;;;;;;5012890;28;20471;-69
2022/09/21 09:29:11;;;;;;;1.97;1.80;;;15.30;59.40;;;;;;4989970;28;20468;-69
2022/09/21 09:31:41;;;;;;;1.50;1.40;;;15.30;59.40;;;;;;4990849;28;20422;-69
2022/09/21 09:34:15;;;;;;;2.67;2.03;;;15.30;59.40;;;;;;4969165;28;20470;-69
2022/09/21 09:36:48;;;;;;;3.00;1.80;;;15.30;59.40;;;;;;4986278;28;20461;-69
2022/09/21 09:39:29;;;;;;;3.77;2.20;;;15.30;59.40;;;;;;4988420;28;20985;-69
2022/09/21 09:42:24;;;;;;;2.60;1.80;;;15.30;59.40;;;;;;4994186;28;20556;-69
2022/09/21 09:45:10;;;;;;;2.30;1.90;;;15.30;59.40;;;;;;4988090;28;21315;-69
2022/09/21 09:47:49;;;;;;;1.83;1.50;;;15.30;59.40;;;;;;4985941;28;20525;-69
2022/09/21 09:50:20;;;;;;;3.17;1.80;;;15.30;59.40;;;;;;4993466;28;20440;-69
2022/09/21 09:52:53;;;;;;;2.40;1.57;;;15.30;59.40;;;;;;4992197;28;20504;-69
2022/09/21 09:55:29;;;;;;;2.63;1.97;;;15.30;59.40;;;;;;5003771;28;20508;-69
2022/09/21 09:57:57;;;;;;;1.80;1.70;;;15.30;59.40;;;;;;4995194;28;20505;-71
2022/09/21 10:00:26;;;;;;;2.63;2.13;;;15.30;59.40;;;;;;4989188;28;20434;-72
2022/09/21 10:02:56;;;;;;;3.00;1.80;;;15.30;59.40;;;;;;4997814;28;20491;-72
2022/09/21 10:05:31;;;;;;;2.20;1.60;;;15.30;59.40;;;;;;5008960;28;20464;-72
2022/09/21 10:08:02;;;;;;;2.17;1.30;;;15.30;59.40;;;;;;5010407;28;20518;-72
2022/09/21 10:10:34;;;;;;;3.10;1.90;;;15.30;59.40;;;;;;5009544;28;20936;-72
2022/09/21 10:13:10;;;;;;;4.23;2.10;;;15.30;59.40;;;;;;5016346;28;20464;-72
2022/09/21 10:15:45;;;;;;;1.97;1.63;;;15.30;59.40;;;;;;5008059;28;20483;-72
2022/09/21 10:18:23;;;;;;;2.07;1.90;;;15.30;59.40;;;;;;5007842;28;20471;-72
2022/09/21 10:20:58;;;;;;;1.70;1.60;;;15.30;59.40;;;;;;5012518;28;20479;-72
2022/09/21 10:23:29;;;;;;;2.77;1.73;;;15.30;59.40;;;;;;4999778;28;21078;-71
2022/09/21 10:26:02;;;;;;;2.53;1.43;;;15.20;59.30;;;;;;5007416;28;20519;-72
2022/09/21 10:28:31;;;;;;;2.70;1.70;;;15.20;59.40;;;;;;5023673;28;20568;-72
2022/09/21 10:31:21;;;;;;;1.67;1.53;;;15.30;59.40;;;;;;5024135;28;20432;-72
2022/09/21 10:33:53;;;;;;;3.17;1.80;;;15.30;59.40;;;;;;5023324;28;20468;-72
2022/09/21 10:36:40;;;;;;;2.27;1.30;;;15.20;59.30;;;;;;4998731;28;20839;-69
2022/09/21 10:39:31;;;;;;;2.10;1.40;;;15.30;59.40;;;;;;5000702;28;20539;-69
2022/09/21 10:42:03;;;;;;;3.17;1.70;;;15.20;59.30;;;;;;5020981;28;20825;-69
2022/09/21 10:44:42;;;;;;;3.77;1.60;;;15.20;59.30;;;;;;5023560;28;20487;-69
2022/09/21 10:47:18;;;;;;;2.40;1.50;;;15.20;59.30;;;;;;5007139;28;20845;-69
2022/09/21 10:49:50;;;;;;;2.77;1.90;;;15.20;59.30;;;;;;5011276;28;20479;-69
2022/09/21 10:52:22;;;;;;;2.43;1.60;;;15.20;59.30;;;;;;5007692;28;20452;-69
2022/09/21 10:54:55;;;;;;;1.37;1.27;;;15.20;59.30;;;;;;5021046;28;20461;-69
2022/09/21 10:57:26;;;;;;;2.73;2.07;;;15.30;59.40;;;;;;5002863;28;20991;-69
2022/09/21 10:59:56;;;;;;;1.90;1.63;;;15.30;59.40;;;;;;5032071;28;20448;-69
2022/09/21 11:02:33;;;;;;;1.37;1.27;;;15.20;59.30;;;;;;5010516;28;20904;-68
2022/09/21 11:05:09;;;;;;;1.63;1.17;;;15.30;59.40;;;;;;5018099;28;21020;-68
2022/09/21 11:07:45;;;;;;;2.42;1.75;;;15.20;59.30;;;;;;4989254;28;21044;-71
2022/09/21 11:10:22;;;;;;;2.85;2.08;;;15.30;59.40;;;;;;5017496;28;20472;-68
2022/09/21 11:13:04;;;;;;;5.80;1.67;;;15.40;59.40;;;;;;4988553;28;20313;-68
2022/09/21 11:15:42;;;;;;;3.17;1.53;;;15.40;59.50;;;;;;4997841;28;20466;-69
2022/09/21 11:18:18;;;;;;;3.70;1.40;;;15.30;59.40;;;;;;4994948;28;20818;-69
2022/09/21 11:20:49;;;;;;;1.97;1.60;;;15.30;59.40;;;;;;4986496;28;20457;-68
2022/09/21 11:23:36;;;;;;;3.43;1.20;;;15.30;59.40;;;;;;4987457;28;20466;-69
2022/09/21 11:26:14;;;;;;;1.33;1.20;;;15.30;59.40;;;;;;4987353;28;20461;-68
2022/09/21 11:28:48;;;;;;;3.00;1.50;;;15.30;59.40;;;;;;4981954;28;20472;-69
2022/09/21 11:31:43;;;;;;;2.60;1.37;;;15.30;59.40;;;;;;4998373;28;20492;-69
2022/09/21 11:34:30;;;;;;;2.53;1.40;;;15.30;59.40;;;;;;4978147;28;20467;-69
2022/09/21 11:37:09;;;;;;;5.40;2.33;;;15.30;59.40;;;;;;4986816;28;20466;-70
2022/09/21 11:39:51;;;;;;;2.40;1.43;;;15.30;59.40;;;;;;4974973;28;21008;-71
2022/09/21 11:42:34;;;;;;;4.70;1.87;;;15.30;59.40;;;;;;4984740;28;20834;-71
2022/09/21 11:45:10;;;;;;;2.37;1.40;;;15.30;59.40;;;;;;5022558;28;20499;-71
2022/09/21 11:47:57;;;;;;;2.37;1.33;;;15.30;59.40;;;;;;5006933;28;20472;-71
2022/09/21 11:50:50;;;;;;;7.60;1.60;;;15.40;59.40;;;;;;5010005;28;20524;-72
2022/09/21 11:53:42;;;;;;;2.47;1.40;;;15.40;59.50;;;;;;5002921;28;20560;-72
2022/09/21 11:56:25;;;;;;;2.03;1.40;;;15.40;59.40;;;;;;5004092;28;21064;-72
2022/09/21 11:59:07;;;;;;;1.27;1.17;;;15.40;59.50;;;;;;4995290;28;20476;-72
2022/09/21 12:02:02;;;;;;;4.60;1.70;;;15.40;59.50;;;;;;4998284;28;20476;-72
2022/09/21 12:04:43;;;;;;;2.30;1.27;;;15.40;59.40;;;;;;5006583;28;20457;-72
2022/09/21 12:07:26;;;;;;;2.03;1.47;;;15.40;59.50;;;;;;5007782;28;20440;-72
2022/09/21 12:10:10;;;;;;;5.93;1.60;;;15.40;59.40;;;;;;5021324;28;20452;-72
2022/09/21 12:12:45;;;;;;;3.40;1.23;;;15.40;59.40;;;;;;5022169;28;20478;-72
2022/09/21 12:15:23;;;;;;;1.63;1.20;;;15.50;59.60;;;;;;4987027;28;20477;-72
2022/09/21 12:17:59;;;;;;;1.80;1.63;;;15.50;59.50;;;;;;4986895;28;20564;-72
2022/09/21 12:20:36;;;;;;;3.30;1.97;;;15.50;59.50;;;;;;4998844;28;20511;-72
2022/09/21 12:23:12;;;;;;;3.10;1.30;;;15.50;59.50;;;;;;4985768;28;20563;-72
2022/09/21 12:25:46;;;;;;;4.70;1.30;;;15.50;59.50;;;;;;4985917;28;21261;-72
2022/09/21 12:28:21;;;;;;;5.13;1.50;;;15.50;59.60;;;;;;5003167;28;20473;-73
2022/09/21 12:30:56;;;;;;;1.27;1.00;;;15.50;59.60;;;;;;4987359;28;20721;-72
2022/09/21 12:33:39;;;;;;;2.17;1.20;;;15.50;59.60;;;;;;4986017;28;20504;-72
2022/09/21 12:36:15;;;;;;;1.93;1.37;;;15.50;59.50;;;;;;4987192;28;20468;-72
2022/09/21 12:38:50;;;;;;;1.50;1.10;;;15.50;59.60;;;;;;5003242;28;21018;-72
2022/09/21 12:41:26;;;;;;;3.03;1.40;;;15.50;59.50;;;;;;4985637;28;20552;-72
2022/09/21 12:44:03;;;;;;;2.17;1.43;;;15.50;59.50;;;;;;4989869;28;20556;-72
2022/09/21 12:46:42;;;;;;;6.80;1.53;;;15.50;59.50;;;;;;4987447;28;20457;-72
2022/09/21 12:49:17;;;;;;;2.87;1.43;;;15.50;59.50;;;;;;4987087;28;20512;-72
2022/09/21 12:51:50;;;;;;;2.00;1.00;;;15.50;59.50;;;;;;4988936;28;20816;-72
2022/09/21 12:54:27;;;;;;;3.13;1.53;;;15.50;59.50;;;;;;4985062;28;20484;-72
2022/09/21 12:57:04;;;;;;;1.70;1.30;;;15.50;59.40;;;;;;4987690;28;20477;-72
2022/09/21 13:00:03;;;;;;;3.53;1.40;;;15.50;59.10;;;;;;4986777;28;20461;-72
2022/09/21 13:02:37;;;;;;;2.07;1.23;;;15.50;58.90;;;;;;4988535;28;20476;-72
2022/09/21 13:05:13;;;;;;;2.80;1.10;;;15.60;58.60;;;;;;5004825;28;20564;-72
2022/09/21 13:08:03;;;;;;;1.73;1.17;;;15.60;58.60;;;;;;5006689;28;20529;-72
2022/09/21 13:10:39;;;;;;;1.97;1.40;;;15.60;58.50;;;;;;5001377;28;20465;-72
2022/09/21 13:13:19;;;;;;;2.90;1.10;;;15.50;58.60;;;;;;5004656;28;20480;-72
2022/09/21 13:15:49;;;;;;;2.30;1.33;;;15.60;58.60;;;;;;4989614;28;20717;-72
2022/09/21 13:18:23;;;;;;;1.90;1.20;;;15.60;58.50;;;;;;4997135;28;20496;-72
2022/09/21 13:20:53;;;;;;;2.10;1.43;;;15.60;58.50;;;;;;4987747;28;20543;-72
2022/09/21 13:23:26;;;;;;;3.47;1.10;;;15.60;58.30;;;;;;5001945;28;20475;-72